sensor_id;sensor_type;location;lat;lon;timestamp;temperature;humidity
18153;DHT22;9202;51.578;7.734;2022-09-17T00:03:48;10.40;99.90
18153;DHT22;9202;51.578;7.734;2022-09-17T00:05:57;10.50;99.90
18153;DHT22;9202;51.578;7.734;2022-09-17T00:08:01;10.50;99.90
18153;DHT22;9202;51.578;7.734;2022-09-17T00:10:04;10.50;99.90
18153;DHT22;9202;51.578;7.734;2022-09-17T00:12:07;10.50;99.90
18153;DHT22;9202;51.578;7.734;2022-09-17T00:14:11;10.50;99.90
18153;DHT22;9202;51.578;7.734;2022-09-17T00:16:21;10.40;99.90
18153;DHT22;9202;51.578;7.734;2022-09-17T00:18:20;10.50;99.90
18153;DHT22;9202;51.578;7.734;2022-09-17T00:20:23;10.50;99.90
18153;DHT22;9202;51.578;7.734;2022-09-17T00:22:25;10.50;99.90
18153;DHT22;9202;51.578;7.734;2022-09-17T00:24:28;10.50;99.90
18153;DHT22;9202;51.578;7.734;2022-09-17T00:26:31;10.40;99.90
18153;DHT22;9202;51.578;7.734;2022-09-17T00:28:34;10.50;99.90
18153;DHT22;9202;51.578;7.734;2022-09-17T00:30:38;10.40;99.90
18153;DHT22;9202;51.578;7.734;2022-09-17T00:32:41;10.40;99.90
18153;DHT22;9202;51.578;7.734;2022-09-17T00:34:43;10.50;99.90
18153;DHT22;9202;51.578;7.734;2022-09-17T00:36:47;10.50;99.90
18153;DHT22;9202;51.578;7.734;2022-09-17T00:38:49;10.50;99.90
18153;DHT22;9202;51.578;7.734;2022-09-17T00:40:52;10.40;99.90
18153;DHT22;9202;51.578;7.734;2022-09-17T00:42:55;10.40;99.90
18153;DHT22;9202;51.578;7.734;2022-09-17T00:44:57;10.40;99.90
18153;DHT22;9202;51.578;7.734;2022-09-17T00:47:00;10.50;99.90
18153;DHT22;9202;51.578;7.734;2022-09-17T00:49:03;10.40;99.90
18153;DHT22;9202;51.578;7.734;2022-09-17T00:51:07;10.40;99.90
18153;DHT22;9202;51.578;7.734;2022-09-17T00:53:11;10.40;99.90
18153;DHT22;9202;51.578;7.734;2022-09-17T00:55:15;10.40;99.90
18153;DHT22;9202;51.578;7.734;2022-09-17T00:57:18;10.40;99.90
18153;DHT22;9202;51.578;7.734;2022-09-17T00:59:21;10.40;99.90
18153;DHT22;9202;51.578;7.734;2022-09-17T01:01:24;10.40;99.90
18153;DHT22;9202;51.578;7.734;2022-09-17T01:03:27;10.40;99.90
18153;DHT22;9202;51.578;7.734;2022-09-17T01:05:31;10.40;99.90
18153;DHT22;9202;51.578;7.734;2022-09-17T01:07:38;10.40;99.90
18153;DHT22;9202;51.578;7.734;2022-09-17T01:09:42;10.40;99.90
18153;DHT22;9202;51.578;7.734;2022-09-17T01:11:50;10.40;99.90
18153;DHT22;9202;51.578;7.734;2022-09-17T01:13:56;10.40;99.90
18153;DHT22;9202;51.578;7.734;2022-09-17T01:16:14;10.40;99.90
18153;DHT22;9202;51.578;7.734;2022-09-17T01:18:14;10.40;99.90
18153;DHT22;9202;51.578;7.734;2022-09-17T01:20:17;10.40;99.90
18153;DHT22;9202;51.578;7.734;2022-09-17T01:22:20;10.30;99.90
18153;DHT22;9202;51.578;7.734;2022-09-17T01:24:35;10.40;99.90
18153;DHT22;9202;51.578;7.734;2022-09-17T01:26:54;10.40;99.90
18153;DHT22;9202;51.578;7.734;2022-09-17T01:28:59;10.30;99.90
18153;DHT22;9202;51.578;7.734;2022-09-17T01:31:04;10.30;99.90
18153;DHT22;9202;51.578;7.734;2022-09-17T01:33:09;10.30;99.90
18153;DHT22;9202;51.578;7.734;2022-09-17T01:35:14;10.30;99.90
18153;DHT22;9202;51.578;7.734;2022-09-17T01:37:19;10.30;99.90
18153;DHT22;9202;51.578;7.734;2022-09-17T01:39:27;10.30;99.90
18153;DHT22;9202;51.578;7.734;2022-09-17T01:41:31;10.30;99.90
18153;DHT22;9202;51.578;7.734;2022-09-17T01:43:35;10.20;99.90
18153;DHT22;9202;51.578;7.734;2022-09-17T01:47:56;10.20;99.90
18153;DHT22;9202;51.578;7.734;2022-09-17T01:50:02;10.20;99.90
18153;DHT22;9202;51.578;7.734;2022-09-17T01:52:05;10.20;99.90
18153;DHT22;9202;51.578;7.734;2022-09-17T01:54:10;10.10;99.90
18153;DHT22;9202;51.578;7.734;2022-09-17T01:56:14;10.20;99.90
18153;DHT22;9202;51.578;7.734;2022-09-17T01:58:19;10.10;99.90
18153;DHT22;9202;51.578;7.734;2022-09-17T02:00:22;10.10;99.90
18153;DHT22;9202;51.578;7.734;2022-09-17T02:02:26;10.10;99.90
18153;DHT22;9202;51.578;7.734;2022-09-17T02:04:31;10.10;99.90
18153;DHT22;9202;51.578;7.734;2022-09-17T02:06:35;10.10;99.90
18153;DHT22;9202;51.578;7.734;2022-09-17T02:08:40;10.00;99.90
18153;DHT22;9202;51.578;7.734;2022-09-17T02:10:44;10.10;99.90
18153;DHT22;9202;51.578;7.734;2022-09-17T02:12:49;10.10;99.90
18153;DHT22;9202;51.578;7.734;2022-09-17T02:14:52;10.00;99.90
18153;DHT22;9202;51.578;7.734;2022-09-17T02:16:58;10.00;99.90
18153;DHT22;9202;51.578;7.734;2022-09-17T02:19:01;10.00;99.90
18153;DHT22;9202;51.578;7.734;2022-09-17T02:21:07;10.00;99.90
18153;DHT22;9202;51.578;7.734;2022-09-17T02:23:12;9.90;99.90
18153;DHT22;9202;51.578;7.734;2022-09-17T02:25:17;9.90;99.90
18153;DHT22;9202;51.578;7.734;2022-09-17T02:27:21;9.90;99.90
18153;DHT22;9202;51.578;7.734;2022-09-17T02:29:26;9.90;99.90
18153;DHT22;9202;51.578;7.734;2022-09-17T02:31:30;9.90;99.90
18153;DHT22;9202;51.578;7.734;2022-09-17T02:33:32;9.90;99.90
18153;DHT22;9202;51.578;7.734;2022-09-17T02:35:36;9.90;99.90
18153;DHT22;9202;51.578;7.734;2022-09-17T02:37:39;9.90;99.90
18153;DHT22;9202;51.578;7.734;2022-09-17T02:39:42;9.90;99.90
18153;DHT22;9202;51.578;7.734;2022-09-17T02:41:45;10.00;99.90
18153;DHT22;9202;51.578;7.734;2022-09-17T02:43:50;9.90;99.90
18153;DHT22;9202;51.578;7.734;2022-09-17T02:45:57;9.90;99.90
18153;DHT22;9202;51.578;7.734;2022-09-17T02:48:05;9.90;99.90
18153;DHT22;9202;51.578;7.734;2022-09-17T02:52:31;9.90;99.90
18153;DHT22;9202;51.578;7.734;2022-09-17T02:54:36;9.90;99.90
18153;DHT22;9202;51.578;7.734;2022-09-17T02:56:42;9.90;99.90
18153;DHT22;9202;51.578;7.734;2022-09-17T02:58:46;9.90;99.90
18153;DHT22;9202;51.578;7.734;2022-09-17T03:00:51;9.90;99.90
18153;DHT22;9202;51.578;7.734;2022-09-17T03:02:55;9.80;99.90
18153;DHT22;9202;51.578;7.734;2022-09-17T03:04:59;9.80;99.90
18153;DHT22;9202;51.578;7.734;2022-09-17T03:07:03;9.80;99.90
18153;DHT22;9202;51.578;7.734;2022-09-17T03:09:06;9.80;99.90
18153;DHT22;9202;51.578;7.734;2022-09-17T03:11:09;9.80;99.90
18153;DHT22;9202;51.578;7.734;2022-09-17T03:13:13;9.90;99.90
18153;DHT22;9202;51.578;7.734;2022-09-17T03:15:16;9.80;99.90
18153;DHT22;9202;51.578;7.734;2022-09-17T03:17:18;9.80;99.90
18153;DHT22;9202;51.578;7.734;2022-09-17T03:19:21;9.80;99.90
18153;DHT22;9202;51.578;7.734;2022-09-17T03:21:23;9.80;99.90
18153;DHT22;9202;51.578;7.734;2022-09-17T03:23:26;9.80;99.90
18153;DHT22;9202;51.578;7.734;2022-09-17T03:25:29;9.90;99.90
18153;DHT22;9202;51.578;7.734;2022-09-17T03:27:31;9.90;99.90
18153;DHT22;9202;51.578;7.734;2022-09-17T03:29:34;9.90;99.90
18153;DHT22;9202;51.578;7.734;2022-09-17T03:31:36;10.00;99.90
18153;DHT22;9202;51.578;7.734;2022-09-17T03:33:39;9.90;99.90
18153;DHT22;9202;51.578;7.734;2022-09-17T03:35:42;9.90;99.90
18153;DHT22;9202;51.578;7.734;2022-09-17T03:37:44;9.90;99.90
18153;DHT22;9202;51.578;7.734;2022-09-17T03:39:48;9.90;99.90
18153;DHT22;9202;51.578;7.734;2022-09-17T03:41:50;9.90;99.90
18153;DHT22;9202;51.578;7.734;2022-09-17T03:43:53;9.90;99.90
18153;DHT22;9202;51.578;7.734;2022-09-17T03:45:55;9.90;99.90
18153;DHT22;9202;51.578;7.734;2022-09-17T03:47:58;9.80;99.90
18153;DHT22;9202;51.578;7.734;2022-09-17T03:50:00;9.80;99.90
18153;DHT22;9202;51.578;7.734;2022-09-17T03:52:03;9.80;99.90
18153;DHT22;9202;51.578;7.734;2022-09-17T03:54:06;9.80;99.90
18153;DHT22;9202;51.578;7.734;2022-09-17T03:56:08;9.80;99.90
18153;DHT22;9202;51.578;7.734;2022-09-17T03:58:11;9.80;99.90
18153;DHT22;9202;51.578;7.734;2022-09-17T04:02:30;9.90;99.90
18153;DHT22;9202;51.578;7.734;2022-09-17T04:04:33;9.90;99.90
18153;DHT22;9202;51.578;7.734;2022-09-17T04:06:35;9.80;99.90
18153;DHT22;9202;51.578;7.734;2022-09-17T04:08:38;9.80;99.90
18153;DHT22;9202;51.578;7.734;2022-09-17T04:10:40;9.80;99.90
18153;DHT22;9202;51.578;7.734;2022-09-17T04:12:43;9.80;99.90
18153;DHT22;9202;51.578;7.734;2022-09-17T04:14:45;9.80;99.90
18153;DHT22;9202;51.578;7.734;2022-09-17T04:16:48;9.80;99.90
18153;DHT22;9202;51.578;7.734;2022-09-17T04:18:50;9.80;99.90
18153;DHT22;9202;51.578;7.734;2022-09-17T04:20:53;9.70;99.90
18153;DHT22;9202;51.578;7.734;2022-09-17T04:22:55;9.80;99.90
18153;DHT22;9202;51.578;7.734;2022-09-17T04:24:58;9.70;99.90
18153;DHT22;9202;51.578;7.734;2022-09-17T04:27:01;9.80;99.90
18153;DHT22;9202;51.578;7.734;2022-09-17T04:29:04;9.80;99.90
18153;DHT22;9202;51.578;7.734;2022-09-17T04:31:07;9.80;99.90
18153;DHT22;9202;51.578;7.734;2022-09-17T04:33:10;9.80;99.90
18153;DHT22;9202;51.578;7.734;2022-09-17T04:35:12;9.80;99.90
18153;DHT22;9202;51.578;7.734;2022-09-17T04:37:16;9.70;99.90
18153;DHT22;9202;51.578;7.734;2022-09-17T04:39:21;9.80;99.90
18153;DHT22;9202;51.578;7.734;2022-09-17T04:41:26;9.80;99.90
18153;DHT22;9202;51.578;7.734;2022-09-17T04:43:31;9.80;99.90
18153;DHT22;9202;51.578;7.734;2022-09-17T04:45:33;9.80;99.90
18153;DHT22;9202;51.578;7.734;2022-09-17T04:47:37;9.80;99.90
18153;DHT22;9202;51.578;7.734;2022-09-17T04:49:40;9.80;99.90
18153;DHT22;9202;51.578;7.734;2022-09-17T04:51:43;9.80;99.90
18153;DHT22;9202;51.578;7.734;2022-09-17T04:53:45;9.80;99.90
18153;DHT22;9202;51.578;7.734;2022-09-17T04:55:48;9.80;99.90
18153;DHT22;9202;51.578;7.734;2022-09-17T04:57:51;9.80;99.90
18153;DHT22;9202;51.578;7.734;2022-09-17T04:59:54;9.80;99.90
18153;DHT22;9202;51.578;7.734;2022-09-17T05:01:56;9.80;99.90
18153;DHT22;9202;51.578;7.734;2022-09-17T05:03:59;9.80;99.90
18153;DHT22;9202;51.578;7.734;2022-09-17T05:06:01;9.90;99.90
18153;DHT22;9202;51.578;7.734;2022-09-17T05:08:04;9.80;99.90
18153;DHT22;9202;51.578;7.734;2022-09-17T05:10:09;9.90;99.90
18153;DHT22;9202;51.578;7.734;2022-09-17T05:12:12;9.80;99.90
18153;DHT22;9202;51.578;7.734;2022-09-17T05:14:14;9.90;99.90
18153;DHT22;9202;51.578;7.734;2022-09-17T05:16:17;9.90;99.90
18153;DHT22;9202;51.578;7.734;2022-09-17T05:18:20;9.90;99.90
18153;DHT22;9202;51.578;7.734;2022-09-17T05:20:22;9.90;99.90
18153;DHT22;9202;51.578;7.734;2022-09-17T05:22:25;9.90;99.90
18153;DHT22;9202;51.578;7.734;2022-09-17T05:24:27;9.90;99.90
18153;DHT22;9202;51.578;7.734;2022-09-17T05:26:30;9.90;99.90
18153;DHT22;9202;51.578;7.734;2022-09-17T05:28:32;9.90;99.90
18153;DHT22;9202;51.578;7.734;2022-09-17T05:30:35;9.90;99.90
18153;DHT22;9202;51.578;7.734;2022-09-17T05:32:37;9.90;99.90
18153;DHT22;9202;51.578;7.734;2022-09-17T05:34:41;9.90;99.90
18153;DHT22;9202;51.578;7.734;2022-09-17T05:36:44;9.90;99.90
18153;DHT22;9202;51.578;7.734;2022-09-17T05:38:46;9.90;99.90
18153;DHT22;9202;51.578;7.734;2022-09-17T05:40:49;9.90;99.90
18153;DHT22;9202;51.578;7.734;2022-09-17T05:42:51;9.90;99.90
18153;DHT22;9202;51.578;7.734;2022-09-17T05:44:54;9.80;99.90
18153;DHT22;9202;51.578;7.734;2022-09-17T05:46:56;9.90;99.90
18153;DHT22;9202;51.578;7.734;2022-09-17T05:48:59;9.90;99.90
18153;DHT22;9202;51.578;7.734;2022-09-17T05:51:02;9.90;99.90
18153;DHT22;9202;51.578;7.734;2022-09-17T05:53:05;9.90;99.90
18153;DHT22;9202;51.578;7.734;2022-09-17T05:57:25;10.00;99.90
18153;DHT22;9202;51.578;7.734;2022-09-17T05:59:29;10.10;99.90
18153;DHT22;9202;51.578;7.734;2022-09-17T06:01:31;10.10;99.90
18153;DHT22;9202;51.578;7.734;2022-09-17T06:03:34;10.10;99.90
18153;DHT22;9202;51.578;7.734;2022-09-17T06:05:36;10.10;99.90
18153;DHT22;9202;51.578;7.734;2022-09-17T06:07:39;10.10;99.90
18153;DHT22;9202;51.578;7.734;2022-09-17T06:09:41;10.20;99.90
18153;DHT22;9202;51.578;7.734;2022-09-17T06:11:44;10.20;99.90
18153;DHT22;9202;51.578;7.734;2022-09-17T06:13:47;10.30;99.90
18153;DHT22;9202;51.578;7.734;2022-09-17T06:15:51;10.20;99.90
18153;DHT22;9202;51.578;7.734;2022-09-17T06:17:53;10.30;99.90
18153;DHT22;9202;51.578;7.734;2022-09-17T06:19:56;10.30;99.90
18153;DHT22;9202;51.578;7.734;2022-09-17T06:22:00;10.40;99.90
18153;DHT22;9202;51.578;7.734;2022-09-17T06:24:02;10.40;99.90
18153;DHT22;9202;51.578;7.734;2022-09-17T06:26:05;10.50;99.90
18153;DHT22;9202;51.578;7.734;2022-09-17T06:28:07;10.60;99.90
18153;DHT22;9202;51.578;7.734;2022-09-17T06:32:25;10.60;99.90
18153;DHT22;9202;51.578;7.734;2022-09-17T06:34:27;10.70;99.90
18153;DHT22;9202;51.578;7.734;2022-09-17T06:36:30;10.70;99.90
18153;DHT22;9202;51.578;7.734;2022-09-17T06:38:33;10.70;99.90
18153;DHT22;9202;51.578;7.734;2022-09-17T06:40:36;10.80;99.90
18153;DHT22;9202;51.578;7.734;2022-09-17T06:42:38;10.70;99.90
18153;DHT22;9202;51.578;7.734;2022-09-17T06:44:41;10.70;99.90
18153;DHT22;9202;51.578;7.734;2022-09-17T06:46:43;10.70;99.90
18153;DHT22;9202;51.578;7.734;2022-09-17T06:48:46;10.80;99.90
18153;DHT22;9202;51.578;7.734;2022-09-17T06:50:49;10.80;99.90
18153;DHT22;9202;51.578;7.734;2022-09-17T06:52:52;10.70;99.90
18153;DHT22;9202;51.578;7.734;2022-09-17T06:54:55;10.80;99.90
18153;DHT22;9202;51.578;7.734;2022-09-17T06:56:58;10.70;99.90
18153;DHT22;9202;51.578;7.734;2022-09-17T06:59:00;10.70;99.90
18153;DHT22;9202;51.578;7.734;2022-09-17T07:01:03;10.70;99.90
18153;DHT22;9202;51.578;7.734;2022-09-17T07:03:07;10.80;99.90
18153;DHT22;9202;51.578;7.734;2022-09-17T07:07:29;10.80;99.90
18153;DHT22;9202;51.578;7.734;2022-09-17T07:09:31;10.70;99.90
18153;DHT22;9202;51.578;7.734;2022-09-17T07:11:34;10.80;99.90
18153;DHT22;9202;51.578;7.734;2022-09-17T07:13:36;10.80;99.90
18153;DHT22;9202;51.578;7.734;2022-09-17T07:15:39;10.70;99.90
18153;DHT22;9202;51.578;7.734;2022-09-17T07:17:41;10.70;99.90
18153;DHT22;9202;51.578;7.734;2022-09-17T07:19:45;10.70;99.90
18153;DHT22;9202;51.578;7.734;2022-09-17T07:21:47;10.80;99.90
18153;DHT22;9202;51.578;7.734;2022-09-17T07:23:50;10.80;99.90
18153;DHT22;9202;51.578;7.734;2022-09-17T07:25:52;10.80;99.90
18153;DHT22;9202;51.578;7.734;2022-09-17T07:27:55;10.90;99.90
18153;DHT22;9202;51.578;7.734;2022-09-17T07:29:57;10.90;99.90
18153;DHT22;9202;51.578;7.734;2022-09-17T07:32:00;10.90;99.90
18153;DHT22;9202;51.578;7.734;2022-09-17T07:34:03;11.00;99.90
18153;DHT22;9202;51.578;7.734;2022-09-17T07:36:06;11.00;99.90
18153;DHT22;9202;51.578;7.734;2022-09-17T07:38:09;11.10;99.90
18153;DHT22;9202;51.578;7.734;2022-09-17T07:40:12;11.20;99.90
18153;DHT22;9202;51.578;7.734;2022-09-17T07:42:14;11.30;99.90
18153;DHT22;9202;51.578;7.734;2022-09-17T07:44:17;11.30;99.90
18153;DHT22;9202;51.578;7.734;2022-09-17T07:46:19;11.40;99.90
18153;DHT22;9202;51.578;7.734;2022-09-17T07:48:22;11.40;99.90
18153;DHT22;9202;51.578;7.734;2022-09-17T07:50:25;11.50;99.90
18153;DHT22;9202;51.578;7.734;2022-09-17T07:52:27;11.50;99.90
18153;DHT22;9202;51.578;7.734;2022-09-17T07:54:30;11.60;99.90
18153;DHT22;9202;51.578;7.734;2022-09-17T07:56:32;11.60;99.90
18153;DHT22;9202;51.578;7.734;2022-09-17T07:58:35;11.80;99.90
18153;DHT22;9202;51.578;7.734;2022-09-17T08:00:38;11.80;99.90
18153;DHT22;9202;51.578;7.734;2022-09-17T08:02:40;11.80;99.90
18153;DHT22;9202;51.578;7.734;2022-09-17T08:04:43;11.70;99.90
18153;DHT22;9202;51.578;7.734;2022-09-17T08:06:46;11.80;99.90
18153;DHT22;9202;51.578;7.734;2022-09-17T08:08:49;11.80;99.90
18153;DHT22;9202;51.578;7.734;2022-09-17T08:10:51;11.70;99.90
18153;DHT22;9202;51.578;7.734;2022-09-17T08:12:54;11.70;99.90
18153;DHT22;9202;51.578;7.734;2022-09-17T08:14:57;11.70;99.90
18153;DHT22;9202;51.578;7.734;2022-09-17T08:17:00;11.80;99.90
18153;DHT22;9202;51.578;7.734;2022-09-17T08:19:02;11.90;99.90
18153;DHT22;9202;51.578;7.734;2022-09-17T08:21:05;11.90;99.90
18153;DHT22;9202;51.578;7.734;2022-09-17T08:23:08;11.90;99.90
18153;DHT22;9202;51.578;7.734;2022-09-17T08:27:26;12.00;99.90
18153;DHT22;9202;51.578;7.734;2022-09-17T08:29:31;12.00;99.90
18153;DHT22;9202;51.578;7.734;2022-09-17T08:31:36;12.10;99.90
18153;DHT22;9202;51.578;7.734;2022-09-17T08:33:38;12.20;99.90
18153;DHT22;9202;51.578;7.734;2022-09-17T08:35:41;12.30;99.90
18153;DHT22;9202;51.578;7.734;2022-09-17T08:37:44;12.30;99.90
18153;DHT22;9202;51.578;7.734;2022-09-17T08:39:48;12.40;99.90
18153;DHT22;9202;51.578;7.734;2022-09-17T08:41:54;12.50;99.90
18153;DHT22;9202;51.578;7.734;2022-09-17T08:44:00;12.50;99.90
18153;DHT22;9202;51.578;7.734;2022-09-17T08:46:02;12.60;99.90
18153;DHT22;9202;51.578;7.734;2022-09-17T08:48:05;12.50;99.90
18153;DHT22;9202;51.578;7.734;2022-09-17T08:50:11;12.60;99.90
18153;DHT22;9202;51.578;7.734;2022-09-17T08:54:40;12.80;99.90
18153;DHT22;9202;51.578;7.734;2022-09-17T08:56:44;12.90;99.90
18153;DHT22;9202;51.578;7.734;2022-09-17T09:01:15;13.10;99.90
18153;DHT22;9202;51.578;7.734;2022-09-17T09:03:24;13.30;99.90
18153;DHT22;9202;51.578;7.734;2022-09-17T09:05:26;13.40;99.90
18153;DHT22;9202;51.578;7.734;2022-09-17T09:07:33;13.50;99.90
18153;DHT22;9202;51.578;7.734;2022-09-17T09:09:35;13.50;99.90
18153;DHT22;9202;51.578;7.734;2022-09-17T09:11:39;13.50;99.90
18153;DHT22;9202;51.578;7.734;2022-09-17T09:13:44;13.60;99.90
18153;DHT22;9202;51.578;7.734;2022-09-17T09:15:50;13.60;99.90
18153;DHT22;9202;51.578;7.734;2022-09-17T09:17:52;13.50;99.90
18153;DHT22;9202;51.578;7.734;2022-09-17T09:19:55;13.60;99.90
18153;DHT22;9202;51.578;7.734;2022-09-17T09:22:01;13.70;99.90
18153;DHT22;9202;51.578;7.734;2022-09-17T09:24:06;13.70;99.90
18153;DHT22;9202;51.578;7.734;2022-09-17T09:26:11;13.70;99.90
18153;DHT22;9202;51.578;7.734;2022-09-17T09:28:16;13.80;99.90
18153;DHT22;9202;51.578;7.734;2022-09-17T09:30:20;13.90;99.90
18153;DHT22;9202;51.578;7.734;2022-09-17T09:32:27;14.10;99.90
18153;DHT22;9202;51.578;7.734;2022-09-17T09:34:30;14.10;99.90
18153;DHT22;9202;51.578;7.734;2022-09-17T09:36:35;14.00;99.90
18153;DHT22;9202;51.578;7.734;2022-09-17T09:38:39;14.00;99.90
18153;DHT22;9202;51.578;7.734;2022-09-17T09:40:45;13.90;99.90
18153;DHT22;9202;51.578;7.734;2022-09-17T09:42:48;13.90;99.90
18153;DHT22;9202;51.578;7.734;2022-09-17T09:44:52;14.10;99.90
18153;DHT22;9202;51.578;7.734;2022-09-17T09:47:03;14.20;99.90
18153;DHT22;9202;51.578;7.734;2022-09-17T09:49:10;14.30;99.90
18153;DHT22;9202;51.578;7.734;2022-09-17T09:51:22;14.20;99.90
18153;DHT22;9202;51.578;7.734;2022-09-17T09:53:39;14.30;99.90
18153;DHT22;9202;51.578;7.734;2022-09-17T09:57:52;14.20;99.90
18153;DHT22;9202;51.578;7.734;2022-09-17T10:00:17;14.20;99.90
18153;DHT22;9202;51.578;7.734;2022-09-17T10:02:19;14.20;99.90
18153;DHT22;9202;51.578;7.734;2022-09-17T10:04:23;14.40;99.90
18153;DHT22;9202;51.578;7.734;2022-09-17T10:06:27;14.40;99.90
18153;DHT22;9202;51.578;7.734;2022-09-17T10:08:30;14.30;99.90
18153;DHT22;9202;51.578;7.734;2022-09-17T10:10:33;14.40;99.90
18153;DHT22;9202;51.578;7.734;2022-09-17T10:12:37;14.30;99.90
18153;DHT22;9202;51.578;7.734;2022-09-17T10:14:40;14.60;99.90
18153;DHT22;9202;51.578;7.734;2022-09-17T10:16:43;14.60;99.90
18153;DHT22;9202;51.578;7.734;2022-09-17T10:18:46;14.70;99.90
18153;DHT22;9202;51.578;7.734;2022-09-17T10:20:50;14.70;99.90
18153;DHT22;9202;51.578;7.734;2022-09-17T10:22:52;14.60;99.90
18153;DHT22;9202;51.578;7.734;2022-09-17T10:24:55;14.70;99.90
18153;DHT22;9202;51.578;7.734;2022-09-17T10:26:59;14.60;99.90
18153;DHT22;9202;51.578;7.734;2022-09-17T10:29:03;14.50;99.90
18153;DHT22;9202;51.578;7.734;2022-09-17T10:31:07;14.40;99.90
18153;DHT22;9202;51.578;7.734;2022-09-17T10:33:15;14.40;99.90
18153;DHT22;9202;51.578;7.734;2022-09-17T10:35:25;14.60;99.90
18153;DHT22;9202;51.578;7.734;2022-09-17T10:37:32;14.80;99.90
18153;DHT22;9202;51.578;7.734;2022-09-17T10:39:35;14.80;99.90
18153;DHT22;9202;51.578;7.734;2022-09-17T10:41:40;14.50;99.90
18153;DHT22;9202;51.578;7.734;2022-09-17T10:43:44;14.50;99.90
18153;DHT22;9202;51.578;7.734;2022-09-17T10:45:53;14.30;99.90
18153;DHT22;9202;51.578;7.734;2022-09-17T10:47:57;14.20;99.90
18153;DHT22;9202;51.578;7.734;2022-09-17T10:50:01;14.10;99.90
18153;DHT22;9202;51.578;7.734;2022-09-17T10:52:06;14.30;99.90
18153;DHT22;9202;51.578;7.734;2022-09-17T10:54:22;14.50;99.90
18153;DHT22;9202;51.578;7.734;2022-09-17T10:56:24;14.80;99.90
18153;DHT22;9202;51.578;7.734;2022-09-17T10:58:31;14.90;99.90
18153;DHT22;9202;51.578;7.734;2022-09-17T11:00:37;14.70;99.90
18153;DHT22;9202;51.578;7.734;2022-09-17T11:05:15;14.50;99.90
18153;DHT22;9202;51.578;7.734;2022-09-17T11:07:18;14.00;99.90
18153;DHT22;9202;51.578;7.734;2022-09-17T11:09:24;13.50;99.90
18153;DHT22;9202;51.578;7.734;2022-09-17T11:11:32;13.40;99.90
18153;DHT22;9202;51.578;7.734;2022-09-17T11:13:36;13.20;99.90
18153;DHT22;9202;51.578;7.734;2022-09-17T11:15:43;13.30;99.90
18153;DHT22;9202;51.578;7.734;2022-09-17T11:17:53;13.60;99.90
18153;DHT22;9202;51.578;7.734;2022-09-17T11:19:57;13.80;99.90
18153;DHT22;9202;51.578;7.734;2022-09-17T11:22:01;14.00;99.90
18153;DHT22;9202;51.578;7.734;2022-09-17T11:24:13;14.40;99.90
18153;DHT22;9202;51.578;7.734;2022-09-17T11:26:18;14.70;99.90
18153;DHT22;9202;51.578;7.734;2022-09-17T11:28:25;14.80;99.90
18153;DHT22;9202;51.578;7.734;2022-09-17T11:30:29;14.70;99.90
18153;DHT22;9202;51.578;7.734;2022-09-17T11:32:43;14.70;99.90
18153;DHT22;9202;51.578;7.734;2022-09-17T11:34:48;14.80;99.90
18153;DHT22;9202;51.578;7.734;2022-09-17T11:36:52;14.80;99.90
18153;DHT22;9202;51.578;7.734;2022-09-17T11:38:56;14.70;99.90
18153;DHT22;9202;51.578;7.734;2022-09-17T11:41:01;14.80;99.90
18153;DHT22;9202;51.578;7.734;2022-09-17T11:43:09;14.80;99.90
18153;DHT22;9202;51.578;7.734;2022-09-17T11:47:28;15.00;99.90
18153;DHT22;9202;51.578;7.734;2022-09-17T11:49:33;15.00;99.90
18153;DHT22;9202;51.578;7.734;2022-09-17T11:51:37;15.10;99.90
18153;DHT22;9202;51.578;7.734;2022-09-17T11:53:42;15.00;99.90
18153;DHT22;9202;51.578;7.734;2022-09-17T11:55:46;15.10;99.90
18153;DHT22;9202;51.578;7.734;2022-09-17T11:57:50;15.10;99.90
18153;DHT22;9202;51.578;7.734;2022-09-17T11:59:55;15.00;99.90
18153;DHT22;9202;51.578;7.734;2022-09-17T12:01:59;14.80;99.90
18153;DHT22;9202;51.578;7.734;2022-09-17T12:04:09;14.70;99.90
18153;DHT22;9202;51.578;7.734;2022-09-17T12:06:10;14.60;99.90
18153;DHT22;9202;51.578;7.734;2022-09-17T12:08:15;14.60;99.90
18153;DHT22;9202;51.578;7.734;2022-09-17T12:10:19;14.50;99.90
18153;DHT22;9202;51.578;7.734;2022-09-17T12:12:23;14.60;99.90
18153;DHT22;9202;51.578;7.734;2022-09-17T12:14:30;14.70;99.90
18153;DHT22;9202;51.578;7.734;2022-09-17T12:16:34;14.80;99.90
18153;DHT22;9202;51.578;7.734;2022-09-17T12:18:43;14.80;99.90
18153;DHT22;9202;51.578;7.734;2022-09-17T12:20:46;15.00;99.90
18153;DHT22;9202;51.578;7.734;2022-09-17T12:22:50;14.90;99.90
18153;DHT22;9202;51.578;7.734;2022-09-17T12:24:54;14.80;99.90
18153;DHT22;9202;51.578;7.734;2022-09-17T12:27:06;14.90;99.90
18153;DHT22;9202;51.578;7.734;2022-09-17T12:29:12;14.90;99.90
18153;DHT22;9202;51.578;7.734;2022-09-17T12:31:16;14.90;99.90
18153;DHT22;9202;51.578;7.734;2022-09-17T12:33:20;14.90;99.90
18153;DHT22;9202;51.578;7.734;2022-09-17T12:35:32;14.90;99.90
18153;DHT22;9202;51.578;7.734;2022-09-17T12:37:39;14.90;99.90
18153;DHT22;9202;51.578;7.734;2022-09-17T12:39:53;14.90;99.90
18153;DHT22;9202;51.578;7.734;2022-09-17T12:41:58;14.90;99.90
18153;DHT22;9202;51.578;7.734;2022-09-17T12:44:06;15.00;99.90
18153;DHT22;9202;51.578;7.734;2022-09-17T12:46:14;14.90;99.90
18153;DHT22;9202;51.578;7.734;2022-09-17T12:48:25;14.90;99.90
18153;DHT22;9202;51.578;7.734;2022-09-17T12:50:33;15.10;99.90
18153;DHT22;9202;51.578;7.734;2022-09-17T12:52:39;15.20;99.90
18153;DHT22;9202;51.578;7.734;2022-09-17T12:57:09;15.30;99.90
18153;DHT22;9202;51.578;7.734;2022-09-17T12:59:12;15.40;99.90
18153;DHT22;9202;51.578;7.734;2022-09-17T13:01:18;15.50;99.90
18153;DHT22;9202;51.578;7.734;2022-09-17T13:03:22;15.50;99.90
18153;DHT22;9202;51.578;7.734;2022-09-17T13:05:29;15.50;99.90
18153;DHT22;9202;51.578;7.734;2022-09-17T13:07:38;15.20;99.90
18153;DHT22;9202;51.578;7.734;2022-09-17T13:12:00;14.50;99.90
18153;DHT22;9202;51.578;7.734;2022-09-17T13:14:04;14.10;99.90
18153;DHT22;9202;51.578;7.734;2022-09-17T13:16:09;13.60;99.90
18153;DHT22;9202;51.578;7.734;2022-09-17T13:18:16;13.10;99.90
18153;DHT22;9202;51.578;7.734;2022-09-17T13:20:22;12.70;99.90
18153;DHT22;9202;51.578;7.734;2022-09-17T13:22:26;12.30;99.90
18153;DHT22;9202;51.578;7.734;2022-09-17T13:24:30;12.20;99.90
18153;DHT22;9202;51.578;7.734;2022-09-17T13:26:34;12.10;99.90
18153;DHT22;9202;51.578;7.734;2022-09-17T13:28:41;12.10;99.90
18153;DHT22;9202;51.578;7.734;2022-09-17T13:30:56;12.20;99.90
18153;DHT22;9202;51.578;7.734;2022-09-17T13:32:59;12.20;99.90
18153;DHT22;9202;51.578;7.734;2022-09-17T13:35:17;12.40;99.90
18153;DHT22;9202;51.578;7.734;2022-09-17T13:37:21;12.50;99.90
18153;DHT22;9202;51.578;7.734;2022-09-17T13:39:31;12.60;99.90
18153;DHT22;9202;51.578;7.734;2022-09-17T13:41:36;12.50;99.90
18153;DHT22;9202;51.578;7.734;2022-09-17T13:43:42;12.50;99.90
18153;DHT22;9202;51.578;7.734;2022-09-17T13:48:08;12.40;99.90
18153;DHT22;9202;51.578;7.734;2022-09-17T13:52:38;12.60;99.90
18153;DHT22;9202;51.578;7.734;2022-09-17T13:54:42;12.80;99.90
18153;DHT22;9202;51.578;7.734;2022-09-17T13:56:45;13.00;99.90
18153;DHT22;9202;51.578;7.734;2022-09-17T13:58:48;13.20;99.90
18153;DHT22;9202;51.578;7.734;2022-09-17T14:00:51;13.20;99.90